createdAt,value
2018-02-04T00:00:38.885Z,42.30
2018-02-04T00:03:06.458Z,45.97
2018-02-04T00:05:34.082Z,39.03
2018-02-04T00:08:01.719Z,32.27
2018-02-04T00:10:29.298Z,33.87
2018-02-04T00:12:57.007Z,36.00
2018-02-04T00:15:24.644Z,30.60
2018-02-04T00:17:52.220Z,37.33
2018-02-04T00:20:19.850Z,27.47
2018-02-04T00:22:47.478Z,16.27
2018-02-04T00:25:15.076Z,22.97
2018-02-04T00:27:42.701Z,18.53
2018-02-04T00:30:10.314Z,18.03
2018-02-04T00:32:37.884Z,16.70
2018-02-04T00:35:05.450Z,17.73
2018-02-04T00:37:33.025Z,14.43
2018-02-04T00:40:00.572Z,12.57
2018-02-04T00:42:28.147Z,12.60
2018-02-04T00:44:55.717Z,26.60
2018-02-04T00:47:23.330Z,21.03
2018-02-04T00:49:50.975Z,12.80
2018-02-04T00:52:18.595Z,13.30
2018-02-04T00:54:47.026Z,12.60
2018-02-04T00:57:14.566Z,19.50
2018-02-04T00:59:42.148Z,9.83
2018-02-04T01:02:09.767Z,14.60
2018-02-04T01:04:37.386Z,18.80
2018-02-04T01:07:05.059Z,14.53
2018-02-04T01:09:32.626Z,13.53
2018-02-04T01:12:00.193Z,18.23
2018-02-04T01:14:27.749Z,15.60
2018-02-04T01:16:55.332Z,18.53
2018-02-04T01:19:22.964Z,11.73
2018-02-04T01:21:50.676Z,12.90
2018-02-04T01:24:18.251Z,22.83
2018-02-04T01:26:45.818Z,20.73
2018-02-04T01:29:13.414Z,26.03
2018-02-04T01:31:41.039Z,28.07
2018-02-04T01:34:08.612Z,8.57
2018-02-04T01:36:36.246Z,12.43
2018-02-04T01:39:03.999Z,14.13
2018-02-04T01:41:31.622Z,14.10
2018-02-04T01:43:59.202Z,24.00
2018-02-04T01:46:26.848Z,21.30
2018-02-04T01:48:54.414Z,17.93
2018-02-04T01:51:22.053Z,24.40
2018-02-04T01:53:49.601Z,21.30
2018-02-04T01:56:17.202Z,17.50
2018-02-04T01:58:44.839Z,21.03
2018-02-04T02:01:12.425Z,13.80
2018-02-04T02:03:39.999Z,15.40
2018-02-04T02:06:07.561Z,19.50
2018-02-04T02:08:35.130Z,19.57
2018-02-04T02:11:02.755Z,18.63
2018-02-04T02:13:30.361Z,22.67
2018-02-04T02:15:57.970Z,9.07
2018-02-04T02:18:25.522Z,8.23
2018-02-04T02:20:53.162Z,11.53
2018-02-04T02:23:20.725Z,10.83
2018-02-04T02:25:48.290Z,13.90
2018-02-04T02:28:15.846Z,5.50
2018-02-04T02:30:43.515Z,10.50
2018-02-04T02:33:11.124Z,6.70
2018-02-04T02:35:38.681Z,10.40
2018-02-04T02:38:06.303Z,8.03
2018-02-04T02:40:33.861Z,10.73
2018-02-04T02:43:01.425Z,10.93
2018-02-04T02:45:28.980Z,8.33
2018-02-04T02:47:56.590Z,7.37
2018-02-04T02:50:24.206Z,21.03
2018-02-04T02:52:52.490Z,19.07
2018-02-04T02:55:20.053Z,11.97
2018-02-04T02:57:47.735Z,7.23
2018-02-04T03:00:15.321Z,9.37
2018-02-04T03:02:42.879Z,24.03
2018-02-04T03:05:10.487Z,19.33
2018-02-04T03:07:38.098Z,6.90
2018-02-04T03:10:05.657Z,19.40
2018-02-04T03:12:33.222Z,11.33
2018-02-04T03:15:00.774Z,10.90
2018-02-04T03:17:28.344Z,12.80
2018-02-04T03:19:55.897Z,12.70
2018-02-04T03:22:23.562Z,6.70
2018-02-04T03:24:51.161Z,18.00
2018-02-04T03:27:18.726Z,17.23
2018-02-04T03:29:46.293Z,14.50
2018-02-04T03:32:13.850Z,10.33
2018-02-04T03:34:41.426Z,35.10
2018-02-04T03:37:08.988Z,20.80
2018-02-04T03:39:36.602Z,12.87
2018-02-04T03:42:04.162Z,19.60
2018-02-04T03:44:31.700Z,8.57
2018-02-04T03:46:59.281Z,17.37
2018-02-04T03:49:26.877Z,8.93
2018-02-04T03:51:54.446Z,9.60
2018-02-04T03:54:22.010Z,13.47
2018-02-04T03:56:49.609Z,7.47
2018-02-04T03:59:17.167Z,19.53
2018-02-04T04:01:44.728Z,15.93
2018-02-04T04:04:12.308Z,15.50
2018-02-04T04:06:39.876Z,8.47
2018-02-04T04:09:07.446Z,16.70
2018-02-04T04:11:35.090Z,40.63
2018-02-04T04:14:02.716Z,18.03
2018-02-04T04:16:30.338Z,30.10
2018-02-04T04:18:57.918Z,39.83
2018-02-04T04:21:25.492Z,31.30
2018-02-04T04:23:53.110Z,13.93
2018-02-04T04:26:20.743Z,16.40
2018-02-04T04:28:48.308Z,16.70
2018-02-04T04:31:15.918Z,19.73
2018-02-04T04:33:43.560Z,18.63
2018-02-04T04:36:11.185Z,12.67
2018-02-04T04:38:38.758Z,17.00
2018-02-04T04:41:06.326Z,14.27
2018-02-04T04:43:33.897Z,23.47
2018-02-04T04:46:01.449Z,17.87
2018-02-04T04:48:29.066Z,7.60
2018-02-04T04:50:56.634Z,20.47
2018-02-04T04:53:24.200Z,28.93
2018-02-04T04:55:51.883Z,21.27
2018-02-04T04:58:19.446Z,13.40
2018-02-04T05:00:47.020Z,17.77
2018-02-04T05:03:14.683Z,18.73
2018-02-04T05:05:42.269Z,9.40
2018-02-04T05:08:09.827Z,9.63
2018-02-04T05:10:37.391Z,11.70
2018-02-04T05:13:04.976Z,7.40
2018-02-04T05:15:32.598Z,9.97
2018-02-04T05:18:00.241Z,8.80
2018-02-04T05:20:27.861Z,15.07
2018-02-04T05:22:55.466Z,10.10
2018-02-04T05:25:23.083Z,8.70
2018-02-04T05:27:50.641Z,19.37
2018-02-04T05:30:18.202Z,11.73
2018-02-04T05:32:45.813Z,8.23
2018-02-04T05:35:13.438Z,16.10
2018-02-04T05:37:40.991Z,17.63
2018-02-04T05:40:08.606Z,15.10
2018-02-04T05:42:36.165Z,10.30
2018-02-04T05:45:03.706Z,10.57
2018-02-04T05:47:31.303Z,11.87
2018-02-04T05:49:58.973Z,19.83
2018-02-04T05:52:26.528Z,19.07
2018-02-04T05:54:54.138Z,19.60
2018-02-04T05:57:21.853Z,20.50
2018-02-04T05:59:49.457Z,17.40
2018-02-04T06:02:17.005Z,20.17
2018-02-04T06:04:44.570Z,15.40
2018-02-04T06:07:12.136Z,11.67
2018-02-04T06:09:39.739Z,12.83
2018-02-04T06:12:07.355Z,16.60
2018-02-04T06:14:34.955Z,18.40
2018-02-04T06:17:02.582Z,14.10
2018-02-04T06:19:30.251Z,18.80
2018-02-04T06:21:57.967Z,15.30
2018-02-04T06:24:25.570Z,11.63
2018-02-04T06:26:53.186Z,11.93
2018-02-04T06:29:20.826Z,11.50
2018-02-04T06:31:48.508Z,12.80
2018-02-04T06:34:16.158Z,18.67
2018-02-04T06:36:43.789Z,21.13
2018-02-04T06:39:11.348Z,21.80
2018-02-04T06:41:38.922Z,21.00
2018-02-04T06:44:06.550Z,18.60
2018-02-04T06:46:34.179Z,29.03
2018-02-04T06:49:01.735Z,16.53
2018-02-04T06:51:29.335Z,13.23
2018-02-04T06:53:56.889Z,19.97
2018-02-04T06:56:24.442Z,14.60
2018-02-04T06:58:52.062Z,17.03
2018-02-04T07:01:19.665Z,15.40
2018-02-04T07:03:47.343Z,12.77
2018-02-04T07:06:14.938Z,15.20
2018-02-04T07:08:42.497Z,13.20
2018-02-04T07:11:10.131Z,18.33
2018-02-04T07:13:37.743Z,18.73
2018-02-04T07:16:05.310Z,14.83
2018-02-04T07:18:32.870Z,12.07
2018-02-04T07:21:00.485Z,15.60
2018-02-04T07:23:28.111Z,21.10
2018-02-04T07:25:55.666Z,21.53
2018-02-04T07:28:23.240Z,10.97
2018-02-04T07:30:50.810Z,15.93
2018-02-04T07:33:18.391Z,17.73
2018-02-04T07:35:46.036Z,23.27
2018-02-04T07:38:13.657Z,16.03
2018-02-04T07:40:41.228Z,21.57
2018-02-04T07:43:08.852Z,31.70
2018-02-04T07:45:36.522Z,22.00
2018-02-04T07:48:04.088Z,19.27
2018-02-04T07:50:31.682Z,22.53
2018-02-04T07:52:59.249Z,33.33
2018-02-04T07:55:26.828Z,24.57
2018-02-04T07:57:54.437Z,18.90
2018-02-04T08:00:22.058Z,25.43
2018-02-04T08:02:49.665Z,20.93
2018-02-04T08:05:17.217Z,20.47
2018-02-04T08:07:44.788Z,16.80
2018-02-04T08:10:12.411Z,19.27
2018-02-04T08:12:40.013Z,26.63
2018-02-04T08:15:07.649Z,25.23
2018-02-04T08:17:35.225Z,30.80
2018-02-04T08:20:02.886Z,20.33
2018-02-04T08:22:30.448Z,28.77
2018-02-04T08:24:58.076Z,19.50
2018-02-04T08:27:25.705Z,26.83
2018-02-04T08:29:53.316Z,30.20
2018-02-04T08:32:20.950Z,29.27
2018-02-04T08:34:48.508Z,36.27
2018-02-04T08:37:16.190Z,17.50
2018-02-04T08:39:43.745Z,18.70
2018-02-04T08:42:11.306Z,18.83
2018-02-04T08:44:38.874Z,14.10
2018-02-04T08:47:07.445Z,17.53
2018-02-04T08:49:35.646Z,19.80
2018-02-04T08:52:03.301Z,17.73
2018-02-04T08:54:31.027Z,25.77
2018-02-04T08:56:58.591Z,29.40
2018-02-04T08:59:26.150Z,34.37
2018-02-04T09:01:53.736Z,28.30
2018-02-04T09:04:21.307Z,25.93
2018-02-04T09:06:48.883Z,24.10
2018-02-04T09:09:16.498Z,19.60
2018-02-04T09:11:44.166Z,16.10
2018-02-04T09:14:11.734Z,19.47
2018-02-04T09:16:39.292Z,23.10
2018-02-04T09:19:06.916Z,26.30
2018-02-04T09:21:34.471Z,25.90
2018-02-04T09:24:02.113Z,32.50
2018-02-04T09:26:29.678Z,24.03
2018-02-04T09:28:57.297Z,27.30
2018-02-04T09:31:24.861Z,21.60
2018-02-04T09:33:52.483Z,21.37
2018-02-04T09:36:20.151Z,23.47
2018-02-04T09:38:47.710Z,17.77
2018-02-04T09:41:15.284Z,18.73
2018-02-04T09:43:42.911Z,18.03
2018-02-04T09:46:10.522Z,12.50
2018-02-04T09:48:38.143Z,14.43
2018-02-04T09:51:05.694Z,9.13
2018-02-04T09:53:33.262Z,20.13
2018-02-04T09:56:00.813Z,21.93
2018-02-04T09:58:28.382Z,18.13
2018-02-04T10:00:55.954Z,14.90
2018-02-04T10:03:23.539Z,30.13
2018-02-04T10:05:51.093Z,26.07
2018-02-04T10:08:18.645Z,10.97
2018-02-04T10:10:46.225Z,19.03
2018-02-04T10:13:13.851Z,16.73
2018-02-04T10:15:41.464Z,15.87
2018-02-04T10:18:09.023Z,11.77
2018-02-04T10:20:36.700Z,19.57
2018-02-04T10:23:04.327Z,20.00
2018-02-04T10:25:31.885Z,21.03
2018-02-04T10:27:59.493Z,29.03
2018-02-04T10:30:27.110Z,21.90
2018-02-04T10:32:54.744Z,20.13
2018-02-04T10:35:22.401Z,32.50
2018-02-04T10:37:50.087Z,27.27
2018-02-04T10:40:17.653Z,26.67
2018-02-04T10:42:45.249Z,40.80
2018-02-04T10:45:12.882Z,17.70
2018-02-04T10:47:40.503Z,18.13
2018-02-04T10:50:08.149Z,20.90
2018-02-04T10:52:35.774Z,15.33
2018-02-04T10:55:03.446Z,22.83
2018-02-04T10:57:31.066Z,22.73
2018-02-04T10:59:58.631Z,26.33
2018-02-04T11:02:26.204Z,20.83
2018-02-04T11:04:53.769Z,14.27
2018-02-04T11:07:21.330Z,19.40
2018-02-04T11:09:48.904Z,22.83
2018-02-04T11:12:16.547Z,16.97
2018-02-04T11:14:44.403Z,12.13
2018-02-04T11:17:11.987Z,18.40
2018-02-04T11:19:39.554Z,23.23
2018-02-04T11:22:07.106Z,15.80
2018-02-04T11:24:34.732Z,15.80
2018-02-04T11:27:02.290Z,22.43
2018-02-04T11:29:29.940Z,30.93
2018-02-04T11:31:57.588Z,29.00
2018-02-04T11:34:25.155Z,39.20
2018-02-04T11:36:52.739Z,33.70
2018-02-04T11:39:20.317Z,32.20
2018-02-04T11:41:47.892Z,41.37
2018-02-04T11:44:15.521Z,26.40
2018-02-04T11:46:43.205Z,25.57
2018-02-04T11:49:10.782Z,30.20
2018-02-04T11:51:38.379Z,32.83
2018-02-04T11:54:06.047Z,33.30
2018-02-04T11:56:33.650Z,46.10
2018-02-04T11:59:01.957Z,38.13
2018-02-04T12:01:29.588Z,88.67
2018-02-04T12:03:58.108Z,82.27
2018-02-04T12:06:26.559Z,72.77
2018-02-04T12:08:54.180Z,38.60
2018-02-04T12:11:21.749Z,22.73
2018-02-04T12:13:49.379Z,25.50
2018-02-04T12:16:17.014Z,32.77
2018-02-04T12:18:44.559Z,35.53
2018-02-04T12:21:12.134Z,44.30
2018-02-04T12:23:39.773Z,33.70
2018-02-04T12:26:07.334Z,40.63
2018-02-04T12:28:34.945Z,38.10
2018-02-04T12:31:02.521Z,39.90
2018-02-04T12:33:30.147Z,43.97
2018-02-04T12:35:57.714Z,47.03
2018-02-04T12:38:25.274Z,54.57
2018-02-04T12:40:52.907Z,25.67
2018-02-04T12:43:20.477Z,17.57
2018-02-04T12:45:48.211Z,16.73
2018-02-04T12:48:15.796Z,31.80
2018-02-04T12:50:43.417Z,30.73
2018-02-04T12:53:10.994Z,94.47
2018-02-04T12:55:38.560Z,42.77
2018-02-04T12:58:06.201Z,38.93
2018-02-04T13:00:33.829Z,35.40
2018-02-04T13:03:01.477Z,55.63
2018-02-04T13:05:29.045Z,56.77
2018-02-04T13:07:56.606Z,74.43
2018-02-04T13:10:24.192Z,74.40
2018-02-04T13:12:51.753Z,49.97
2018-02-04T13:15:19.334Z,34.57
2018-02-04T13:17:46.899Z,49.90
2018-02-04T13:20:14.578Z,31.30
2018-02-04T13:22:42.140Z,39.90
2018-02-04T13:25:09.710Z,28.73
2018-02-04T13:27:37.280Z,22.27
2018-02-04T13:30:04.853Z,22.90
2018-02-04T13:32:32.478Z,25.57
2018-02-04T13:35:00.040Z,28.77
2018-02-04T13:37:27.683Z,25.57
2018-02-04T13:39:55.257Z,29.80
2018-02-04T13:42:22.840Z,31.57
2018-02-04T13:44:50.468Z,32.03
2018-02-04T13:47:18.085Z,31.93
2018-02-04T13:49:45.700Z,38.73
2018-02-04T13:52:13.287Z,35.70
2018-02-04T13:54:40.852Z,53.47
2018-02-04T13:57:08.494Z,39.17
2018-02-04T13:59:36.123Z,44.30
2018-02-04T14:02:03.692Z,43.77
2018-02-04T14:04:31.257Z,52.57
2018-02-04T14:06:58.906Z,47.27
2018-02-04T14:09:26.523Z,57.40
2018-02-04T14:11:54.090Z,57.30
2018-02-04T14:14:21.650Z,67.20
2018-02-04T14:16:49.253Z,65.63
2018-02-04T14:19:16.880Z,64.87
2018-02-04T14:21:44.518Z,67.20
2018-02-04T14:24:12.127Z,63.77
2018-02-04T14:26:39.698Z,54.07
2018-02-04T14:29:07.262Z,48.13
2018-02-04T14:31:34.844Z,35.33
2018-02-04T14:34:02.441Z,48.87
2018-02-04T14:36:30.072Z,31.33
2018-02-04T14:38:57.644Z,29.33
2018-02-04T14:41:25.272Z,25.57
2018-02-04T14:43:53.886Z,27.93
2018-02-04T14:46:21.559Z,42.37
2018-02-04T14:48:49.192Z,38.93
2018-02-04T14:51:16.750Z,38.93
2018-02-04T14:53:44.352Z,39.77
2018-02-04T14:56:11.979Z,40.47
2018-02-04T14:58:39.554Z,47.93
2018-02-04T15:01:07.125Z,47.80
2018-02-04T15:03:34.843Z,38.27
2018-02-04T15:06:02.440Z,53.33
2018-02-04T15:08:30.000Z,55.33
2018-02-04T15:10:57.666Z,46.17
2018-02-04T15:13:25.290Z,52.03
2018-02-04T15:15:52.911Z,44.30
2018-02-04T15:18:20.641Z,67.37
2018-02-04T15:20:48.433Z,57.70
2018-02-04T15:23:16.081Z,40.70
2018-02-04T15:25:44.661Z,41.57
2018-02-04T15:28:12.382Z,29.70
2018-02-04T15:30:40.114Z,26.40
2018-02-04T15:33:07.854Z,26.83
2018-02-04T15:35:35.540Z,29.37
2018-02-04T15:38:03.176Z,27.57
2018-02-04T15:40:30.798Z,31.83
2018-02-04T15:42:59.413Z,30.83
2018-02-04T15:45:27.819Z,33.10
2018-02-04T15:47:56.107Z,34.93
2018-02-04T15:50:23.685Z,40.03
2018-02-04T15:52:51.263Z,38.10
2018-02-04T15:55:18.908Z,39.20
2018-02-04T15:57:46.651Z,49.23
2018-02-04T16:00:14.273Z,70.07
2018-02-04T16:02:41.906Z,112.40
2018-02-04T16:05:09.546Z,54.63
2018-02-04T16:07:37.170Z,58.77
2018-02-04T16:10:04.752Z,50.77
2018-02-04T16:12:32.439Z,61.77
2018-02-04T16:15:00.148Z,63.33
2018-02-04T16:17:27.828Z,70.00
2018-02-04T16:19:55.458Z,89.83
2018-02-04T16:22:23.056Z,55.93
2018-02-04T16:24:50.710Z,42.40
2018-02-04T16:27:18.285Z,41.70
2018-02-04T16:29:45.937Z,30.90
2018-02-04T16:32:13.491Z,35.73
2018-02-04T16:34:41.066Z,39.27
2018-02-04T16:37:08.664Z,32.17
2018-02-04T16:39:36.225Z,43.90
2018-02-04T16:42:03.802Z,40.93
2018-02-04T16:44:31.380Z,43.60
2018-02-04T16:46:59.170Z,34.93
2018-02-04T16:49:26.790Z,42.73
2018-02-04T16:51:54.354Z,50.20
2018-02-04T16:54:22.004Z,41.10
2018-02-04T16:56:49.631Z,60.87
2018-02-04T16:59:17.216Z,55.57
2018-02-04T17:01:44.882Z,51.80
2018-02-04T17:04:12.521Z,38.87
2018-02-04T17:06:40.096Z,31.77
2018-02-04T17:09:07.755Z,41.23
2018-02-04T17:11:35.332Z,40.90
2018-02-04T17:14:02.966Z,25.47
2018-02-04T17:16:30.548Z,40.40
2018-02-04T17:18:58.174Z,29.43
2018-02-04T17:21:25.868Z,33.40
2018-02-04T17:23:53.436Z,29.40
2018-02-04T17:26:21.006Z,33.40
2018-02-04T17:28:48.586Z,32.07
2018-02-04T17:31:16.191Z,33.77
2018-02-04T17:33:43.829Z,38.13
2018-02-04T17:36:11.407Z,30.63
2018-02-04T17:38:39.023Z,35.13
2018-02-04T17:41:06.676Z,41.00
2018-02-04T17:43:34.247Z,31.87
2018-02-04T17:46:01.823Z,36.30
2018-02-04T17:48:29.474Z,34.70
2018-02-04T17:50:57.103Z,40.13
2018-02-04T17:53:24.715Z,31.17
2018-02-04T17:55:52.382Z,35.33
2018-02-04T17:58:20.010Z,35.83
2018-02-04T18:00:47.586Z,37.43
2018-02-04T18:03:15.159Z,36.53
2018-02-04T18:05:42.730Z,35.73
2018-02-04T18:08:10.365Z,40.40
2018-02-04T18:10:37.986Z,37.60
2018-02-04T18:13:05.610Z,47.20
2018-02-04T18:15:33.188Z,37.83
2018-02-04T18:18:01.547Z,40.67
2018-02-04T18:20:29.123Z,52.90
2018-02-04T18:22:56.743Z,59.80
2018-02-04T18:25:24.322Z,54.13
2018-02-04T18:27:51.910Z,46.10
2018-02-04T18:30:19.698Z,45.20
2018-02-04T18:32:47.272Z,47.63
2018-02-04T18:35:14.841Z,48.27
2018-02-04T18:37:42.427Z,42.70
2018-02-04T18:40:10.043Z,44.83
2018-02-04T18:42:37.610Z,37.47
2018-02-04T18:45:05.250Z,46.90
2018-02-04T18:47:32.890Z,44.80
2018-02-04T18:50:00.583Z,50.10
2018-02-04T18:52:28.242Z,51.67
2018-02-04T18:54:55.851Z,48.47
2018-02-04T18:57:23.472Z,45.40
2018-02-04T18:59:51.156Z,47.10
2018-02-04T19:02:18.734Z,48.50
2018-02-04T19:04:46.559Z,35.60
2018-02-04T19:07:15.320Z,25.53
2018-02-04T19:09:42.929Z,40.83
2018-02-04T19:12:10.599Z,36.63
2018-02-04T19:14:38.357Z,29.90
2018-02-04T19:17:05.975Z,33.20
2018-02-04T19:19:33.535Z,33.30
2018-02-04T19:22:01.743Z,28.87
2018-02-04T19:24:29.628Z,34.70
2018-02-04T19:26:57.447Z,36.50
2018-02-04T19:29:25.078Z,39.00
2018-02-04T19:31:52.682Z,31.80
2018-02-04T19:34:20.323Z,38.83
2018-02-04T19:36:47.925Z,35.10
2018-02-04T19:39:15.510Z,33.43
2018-02-04T19:41:43.219Z,39.57
2018-02-04T19:44:10.833Z,38.43
2018-02-04T19:46:38.499Z,39.63
2018-02-04T19:49:06.097Z,28.97
2018-02-04T19:51:33.783Z,32.30
2018-02-04T19:54:01.353Z,35.07
2018-02-04T19:56:29.444Z,26.10
2018-02-04T19:58:57.094Z,33.00
2018-02-04T20:01:24.673Z,31.60
2018-02-04T20:03:52.376Z,38.67
2018-02-04T20:06:19.960Z,39.90
2018-02-04T20:08:47.530Z,37.23
2018-02-04T20:11:16.090Z,41.23
2018-02-04T20:13:43.692Z,39.30
2018-02-04T20:16:11.289Z,37.13
2018-02-04T20:18:38.862Z,31.30
2018-02-04T20:21:06.578Z,35.33
2018-02-04T20:23:34.202Z,41.97
2018-02-04T20:26:01.779Z,39.00
2018-02-04T20:28:29.343Z,42.27
2018-02-04T20:30:57.015Z,39.87
2018-02-04T20:33:25.626Z,37.63
2018-02-04T20:35:53.194Z,32.77
2018-02-04T20:38:21.171Z,43.07
2018-02-04T20:40:49.160Z,35.60
2018-02-04T20:43:16.743Z,39.43
2018-02-04T20:45:44.342Z,42.70
2018-02-04T20:48:11.956Z,45.33
2018-02-04T20:50:39.582Z,53.73
2018-02-04T20:53:07.239Z,61.80
2018-02-04T20:55:34.848Z,56.43
2018-02-04T20:58:02.426Z,63.80
2018-02-04T21:00:30.009Z,64.57
2018-02-04T21:02:57.597Z,53.33
2018-02-04T21:05:25.146Z,65.80
2018-02-04T21:07:52.939Z,43.63
2018-02-04T21:10:20.574Z,39.77
2018-02-04T21:12:48.241Z,36.00
2018-02-04T21:15:15.900Z,36.97
2018-02-04T21:17:43.531Z,36.57
2018-02-04T21:20:11.190Z,33.37
2018-02-04T21:22:39.084Z,36.63
2018-02-04T21:25:06.763Z,31.50
2018-02-04T21:27:34.334Z,26.63
2018-02-04T21:30:01.964Z,26.10
2018-02-04T21:32:29.555Z,28.37
2018-02-04T21:34:57.191Z,31.27
2018-02-04T21:37:24.811Z,34.17
2018-02-04T21:39:52.378Z,32.70
2018-02-04T21:42:19.999Z,35.57
2018-02-04T21:44:47.742Z,33.40
2018-02-04T21:47:15.362Z,40.23
2018-02-04T21:49:42.952Z,51.33
2018-02-04T21:52:10.528Z,41.87
2018-02-04T21:54:38.108Z,64.30
2018-02-04T21:57:06.015Z,54.23
2018-02-04T21:59:33.821Z,56.03
2018-02-04T22:02:01.459Z,39.27
2018-02-04T22:04:29.035Z,45.47
2018-02-04T22:06:56.667Z,42.00
2018-02-04T22:09:24.297Z,46.80
2018-02-04T22:11:51.935Z,45.43
2018-02-04T22:14:19.604Z,62.87
2018-02-04T22:16:47.241Z,88.30
2018-02-04T22:19:14.806Z,47.70
2018-02-04T22:21:42.443Z,50.70
2018-02-04T22:24:10.099Z,81.23
2018-02-04T22:26:37.737Z,63.90
2018-02-04T22:29:05.317Z,49.20
2018-02-04T22:31:32.901Z,44.70
2018-02-04T22:34:00.588Z,45.90
2018-02-04T22:36:28.215Z,38.57
2018-02-04T22:38:55.790Z,31.33
2018-02-04T22:41:23.362Z,31.70
2018-02-04T22:43:50.989Z,29.60
2018-02-04T22:46:18.618Z,27.20
2018-02-04T22:48:46.191Z,28.47
2018-02-04T22:51:13.839Z,42.10
2018-02-04T22:53:41.482Z,29.27
2018-02-04T22:56:09.033Z,27.87
2018-02-04T22:58:36.606Z,45.93
2018-02-04T23:01:04.175Z,29.80
2018-02-04T23:03:31.758Z,35.67
2018-02-04T23:05:59.322Z,48.43
2018-02-04T23:08:26.937Z,33.50
2018-02-04T23:10:54.515Z,26.70
2018-02-04T23:13:22.142Z,42.30
2018-02-04T23:15:49.714Z,33.07
2018-02-04T23:18:17.315Z,65.30
2018-02-04T23:20:44.930Z,35.13
2018-02-04T23:23:12.581Z,75.37
2018-02-04T23:25:40.209Z,36.53
2018-02-04T23:28:07.842Z,27.47
2018-02-04T23:30:35.466Z,26.63
2018-02-04T23:33:03.046Z,26.47
2018-02-04T23:35:30.610Z,41.47
2018-02-04T23:37:58.186Z,29.90
2018-02-04T23:40:25.734Z,34.73
2018-02-04T23:42:53.324Z,32.03
2018-02-04T23:45:20.948Z,30.03
2018-02-04T23:47:48.585Z,30.40
2018-02-04T23:50:16.162Z,40.43
2018-02-04T23:52:43.730Z,41.23
2018-02-04T23:55:11.341Z,38.67
2018-02-04T23:57:38.965Z,32.33
